Time;durP1;ratioP1;P1;durP2;ratioP2;P2;SDS_P1;SDS_P2;PMS_P1;PMS_P2;Temp;Humidity;BMP_temperature;BMP_pressure;BME280_temperature;BME280_humidity;BME280_pressure;Samples;Min_cycle;Max_cycle;Signal;HPM_P1;HPM_P2
2020/12/08 00:00:43;;;;;;;25.60;22.27;;;4.40;99.90;;;;;;5115542;28;20201;-80
2020/12/08 00:03:09;;;;;;;25.43;22.60;;;4.50;99.90;;;;;;5096944;28;20212;-80
2020/12/08 00:05:34;;;;;;;24.57;21.97;;;4.60;99.90;;;;;;5093933;28;20175;-80
2020/12/08 00:08:03;;;;;;;25.93;22.07;;;4.80;99.90;;;;;;5102067;28;20192;-80
2020/12/08 00:10:29;;;;;;;25.27;22.63;;;4.50;99.90;;;;;;5115058;28;20541;-80
2020/12/08 00:12:55;;;;;;;23.10;20.60;;;4.30;99.90;;;;;;5113504;28;20219;-80
2020/12/08 00:15:21;;;;;;;23.17;19.87;;;4.10;99.90;;;;;;5079699;28;20181;-80
2020/12/08 00:17:47;;;;;;;22.43;20.03;;;4.00;99.90;;;;;;5076604;28;20209;-80
2020/12/08 00:20:18;;;;;;;21.53;19.23;;;4.10;99.90;;;;;;5078139;28;20210;-80
2020/12/08 00:22:44;;;;;;;23.43;20.13;;;3.90;99.90;;;;;;5097609;28;20210;-80
2020/12/08 00:25:10;;;;;;;22.17;19.67;;;4.00;99.90;;;;;;5114151;28;20176;-80
2020/12/08 00:27:39;;;;;;;21.03;18.70;;;4.00;99.90;;;;;;5114605;28;20201;-80
2020/12/08 00:30:10;;;;;;;20.80;18.70;;;3.90;99.90;;;;;;5113453;28;20179;-80
2020/12/08 00:32:38;;;;;;;21.13;18.93;;;3.80;99.90;;;;;;5115086;28;20603;-80
2020/12/08 00:35:04;;;;;;;21.07;18.47;;;3.90;99.90;;;;;;5113583;28;20177;-80
2020/12/08 00:37:30;;;;;;;21.77;19.57;;;3.90;99.90;;;;;;5095802;28;20187;-80
2020/12/08 00:39:56;;;;;;;20.73;18.53;;;3.80;99.90;;;;;;5096313;28;20178;-80
2020/12/08 00:42:21;;;;;;;20.37;18.30;;;3.70;99.90;;;;;;5079666;28;20198;-80
2020/12/08 00:44:47;;;;;;;20.47;18.40;;;3.70;99.90;;;;;;5113369;28;20182;-80
2020/12/08 00:47:13;;;;;;;20.33;18.23;;;3.60;99.90;;;;;;5096169;28;20177;-80
2020/12/08 00:49:38;;;;;;;19.57;17.57;;;3.50;99.90;;;;;;5113230;28;20177;-80
2020/12/08 00:52:04;;;;;;;19.77;17.70;;;3.40;99.90;;;;;;5075860;28;20693;-80
2020/12/08 00:54:30;;;;;;;19.67;17.67;;;3.20;99.90;;;;;;5094051;28;20199;-80
2020/12/08 00:56:55;;;;;;;18.73;16.90;;;3.20;99.90;;;;;;5063527;28;20183;-80
2020/12/08 00:59:21;;;;;;;20.00;17.90;;;3.00;99.90;;;;;;5113199;28;20170;-80
2020/12/08 01:01:47;;;;;;;19.90;17.77;;;2.90;99.90;;;;;;5113578;28;20173;-80
2020/12/08 01:04:12;;;;;;;20.30;18.20;;;3.00;99.90;;;;;;5113192;28;20611;-80
2020/12/08 01:06:41;;;;;;;21.90;19.70;;;3.30;99.90;;;;;;5092503;28;20270;-80
2020/12/08 01:09:08;;;;;;;21.47;19.17;;;3.40;99.90;;;;;;5092304;28;20178;-80
2020/12/08 01:11:41;;;;;;;20.67;18.67;;;3.20;99.90;;;;;;5113164;28;20176;-80
2020/12/08 01:14:08;;;;;;;23.37;20.87;;;3.10;99.90;;;;;;5113918;28;20598;-80
2020/12/08 01:16:35;;;;;;;23.17;20.43;;;3.20;99.90;;;;;;5112459;28;20261;-80
2020/12/08 01:19:01;;;;;;;23.00;20.67;;;3.30;99.90;;;;;;5112999;28;20181;-80
2020/12/08 01:21:27;;;;;;;24.73;21.33;;;3.50;99.90;;;;;;5112874;28;20178;-80
2020/12/08 01:23:52;;;;;;;22.97;20.57;;;3.30;99.90;;;;;;5095901;28;20179;-80
2020/12/08 01:26:23;;;;;;;23.63;21.10;;;3.10;99.90;;;;;;5112424;28;20182;-80
2020/12/08 01:28:48;;;;;;;23.80;21.30;;;3.10;99.90;;;;;;5112725;28;20651;-80
2020/12/08 01:31:14;;;;;;;24.57;22.07;;;3.10;99.90;;;;;;5095951;28;20180;-80
2020/12/08 01:33:40;;;;;;;23.57;21.07;;;3.10;99.90;;;;;;5095530;28;20212;-80
2020/12/08 01:36:06;;;;;;;25.40;21.27;;;3.20;99.90;;;;;;5112357;28;20661;-80
2020/12/08 01:38:31;;;;;;;23.03;20.63;;;3.20;99.90;;;;;;5114192;28;20557;-79
2020/12/08 01:40:57;;;;;;;25.27;22.67;;;3.30;99.90;;;;;;5092197;28;20224;-79
2020/12/08 01:43:24;;;;;;;25.40;22.70;;;3.50;99.90;;;;;;5092337;28;20233;-79
2020/12/08 01:45:49;;;;;;;24.87;22.37;;;3.60;99.90;;;;;;5086440;28;20273;-80
2020/12/08 01:48:15;;;;;;;24.17;21.63;;;3.70;99.90;;;;;;5111933;28;20201;-80
2020/12/08 01:50:41;;;;;;;27.10;24.13;;;3.70;99.90;;;;;;5112411;28;20201;-80
2020/12/08 01:53:10;;;;;;;27.63;24.63;;;3.90;99.90;;;;;;5111783;28;20637;-79
2020/12/08 01:55:38;;;;;;;28.93;23.87;;;4.00;99.90;;;;;;5095770;28;20604;-80
2020/12/08 01:58:20;;;;;;;24.97;22.37;;;3.90;99.90;;;;;;5112558;28;20634;-80
2020/12/08 02:00:50;;;;;;;25.90;23.03;;;4.00;99.90;;;;;;5112522;28;20180;-79
2020/12/08 02:03:16;;;;;;;26.23;23.53;;;4.10;99.90;;;;;;5113364;28;20176;-80
2020/12/08 02:05:43;;;;;;;25.77;22.97;;;4.20;99.90;;;;;;5112112;28;20224;-79
2020/12/08 02:08:09;;;;;;;25.33;22.23;;;4.30;99.90;;;;;;5112406;28;20193;-79
2020/12/08 02:10:35;;;;;;;24.53;21.90;;;4.20;99.90;;;;;;5112324;28;20269;-80
2020/12/08 02:13:02;;;;;;;24.43;21.83;;;3.90;99.90;;;;;;5112441;28;20246;-80
2020/12/08 02:15:30;;;;;;;23.77;21.17;;;3.60;99.90;;;;;;5111699;28;20261;-80
2020/12/08 02:17:56;;;;;;;23.90;20.83;;;3.70;99.90;;;;;;5095316;28;20574;-80
2020/12/08 02:20:22;;;;;;;23.33;20.63;;;3.90;99.90;;;;;;5111879;28;20195;-80
2020/12/08 02:22:48;;;;;;;23.40;20.97;;;4.20;99.90;;;;;;5112067;28;20184;-80
2020/12/08 02:25:13;;;;;;;23.07;20.67;;;4.20;99.90;;;;;;5112958;28;20183;-80
2020/12/08 02:27:39;;;;;;;22.93;20.43;;;4.00;99.90;;;;;;5095284;28;20190;-80
2020/12/08 02:30:05;;;;;;;21.93;19.70;;;3.70;99.90;;;;;;5112218;28;20563;-80
2020/12/08 02:32:30;;;;;;;22.33;19.77;;;3.60;99.90;;;;;;5111581;28;20178;-79
2020/12/08 02:34:56;;;;;;;22.47;19.93;;;3.70;99.90;;;;;;5094562;28;20193;-79
2020/12/08 02:37:22;;;;;;;22.67;20.37;;;3.70;99.90;;;;;;5091593;28;20199;-79
2020/12/08 02:39:48;;;;;;;23.13;20.43;;;3.80;99.90;;;;;;5092996;28;20669;-80
2020/12/08 02:42:15;;;;;;;22.10;19.63;;;3.90;99.90;;;;;;5058184;28;20220;-80
2020/12/08 02:44:41;;;;;;;23.10;20.60;;;3.90;99.90;;;;;;5086863;28;20215;-79
2020/12/08 02:47:07;;;;;;;22.40;20.07;;;4.10;99.90;;;;;;5112040;28;20176;-80
2020/12/08 02:49:33;;;;;;;21.77;19.50;;;4.10;99.90;;;;;;5107988;28;20255;-79
2020/12/08 02:51:58;;;;;;;21.97;19.63;;;4.10;99.90;;;;;;5112015;28;20649;-80
2020/12/08 02:54:24;;;;;;;22.33;20.07;;;4.20;99.90;;;;;;5112743;28;20253;-80
2020/12/08 02:56:50;;;;;;;23.40;20.43;;;4.30;99.90;;;;;;5078166;28;20175;-80
2020/12/08 02:59:15;;;;;;;22.07;19.80;;;4.30;99.90;;;;;;5114719;28;20166;-80
2020/12/08 03:01:41;;;;;;;21.70;19.47;;;4.30;99.90;;;;;;5098450;28;20230;-80
2020/12/08 03:04:07;;;;;;;22.97;20.57;;;4.30;99.90;;;;;;5114656;28;20184;-80
2020/12/08 03:06:33;;;;;;;21.77;19.43;;;4.30;99.90;;;;;;5116561;28;20184;-80
2020/12/08 03:08:59;;;;;;;24.07;20.97;;;4.30;99.90;;;;;;5115515;28;20184;-80
2020/12/08 03:11:33;;;;;;;24.03;21.30;;;4.20;99.90;;;;;;5115602;28;20678;-80
2020/12/08 03:13:59;;;;;;;22.47;20.27;;;4.30;99.90;;;;;;5114605;28;20197;-80
2020/12/08 03:16:25;;;;;;;23.43;20.77;;;4.30;99.90;;;;;;5080486;28;20176;-80
2020/12/08 03:18:50;;;;;;;22.97;20.63;;;4.40;99.90;;;;;;5115174;28;20195;-80
2020/12/08 03:21:16;;;;;;;23.37;20.87;;;4.30;99.90;;;;;;5097355;28;20180;-80
2020/12/08 03:23:42;;;;;;;22.87;20.47;;;4.40;99.90;;;;;;5114493;28;20196;-80
2020/12/08 03:26:08;;;;;;;23.03;20.57;;;4.40;99.90;;;;;;5115812;28;20185;-79
2020/12/08 03:28:34;;;;;;;22.43;20.13;;;4.40;99.90;;;;;;5098093;28;20209;-80
2020/12/08 03:30:59;;;;;;;22.97;20.37;;;4.50;99.90;;;;;;5114791;28;20196;-80
2020/12/08 03:33:25;;;;;;;25.10;21.93;;;4.80;99.90;;;;;;5097368;28;20589;-80
2020/12/08 03:35:53;;;;;;;24.83;22.13;;;4.50;99.90;;;;;;5081208;28;20185;-80
2020/12/08 03:38:18;;;;;;;27.67;22.77;;;4.40;99.90;;;;;;5116477;28;20175;-80
2020/12/08 03:40:44;;;;;;;24.77;22.07;;;4.40;99.90;;;;;;5097924;28;20532;-80
2020/12/08 03:43:10;;;;;;;24.67;22.00;;;4.50;99.90;;;;;;5080654;28;20180;-80
2020/12/08 03:45:35;;;;;;;26.77;23.17;;;4.50;99.90;;;;;;5114560;28;20181;-80
2020/12/08 03:48:01;;;;;;;30.70;22.27;;;4.50;99.90;;;;;;5114557;28;20192;-80
2020/12/08 03:50:27;;;;;;;26.80;23.70;;;4.50;99.90;;;;;;5115515;28;20189;-80
2020/12/08 03:52:56;;;;;;;26.03;23.23;;;4.70;99.90;;;;;;5114507;28;20661;-80
2020/12/08 03:55:22;;;;;;;26.00;22.60;;;4.80;99.90;;;;;;5114843;28;20277;-80
2020/12/08 03:57:47;;;;;;;26.77;22.57;;;4.40;99.90;;;;;;5114231;28;20268;-80
2020/12/08 04:00:13;;;;;;;24.33;21.63;;;4.20;99.90;;;;;;5072578;28;20243;-80
2020/12/08 04:02:39;;;;;;;25.07;21.97;;;4.20;99.90;;;;;;5060257;28;20181;-81
2020/12/08 04:05:05;;;;;;;25.50;22.27;;;4.60;99.90;;;;;;5093961;28;20172;-80
2020/12/08 04:07:30;;;;;;;25.83;21.37;;;4.50;99.90;;;;;;5108552;28;20183;-80
2020/12/08 04:09:56;;;;;;;26.63;22.17;;;4.80;99.90;;;;;;5096812;28;20275;-80
2020/12/08 04:12:22;;;;;;;25.20;21.83;;;4.90;99.90;;;;;;5113962;28;20194;-80
2020/12/08 04:14:48;;;;;;;24.57;21.80;;;4.70;99.90;;;;;;5079848;28;20209;-80
2020/12/08 04:17:19;;;;;;;25.50;22.23;;;4.60;99.90;;;;;;5097009;28;20184;-80
2020/12/08 04:19:45;;;;;;;23.77;21.37;;;4.60;99.90;;;;;;5113861;28;20629;-80
2020/12/08 04:22:11;;;;;;;24.57;21.33;;;4.50;99.90;;;;;;5113680;28;20176;-79
2020/12/08 04:24:36;;;;;;;26.10;21.53;;;4.50;99.90;;;;;;5097033;28;20192;-80
2020/12/08 04:27:03;;;;;;;25.40;21.63;;;4.60;99.90;;;;;;5113473;28;20534;-79
2020/12/08 04:29:28;;;;;;;25.27;20.73;;;4.50;99.90;;;;;;5114866;28;20194;-79
2020/12/08 04:31:54;;;;;;;25.10;22.00;;;4.30;99.90;;;;;;5074888;28;20184;-79
2020/12/08 04:34:20;;;;;;;22.77;20.33;;;4.50;99.90;;;;;;5093437;28;20212;-80
2020/12/08 04:36:47;;;;;;;26.10;22.23;;;4.50;99.90;;;;;;5093326;28;20275;-80
2020/12/08 04:39:12;;;;;;;23.23;20.70;;;4.50;99.90;;;;;;5094596;28;20540;-80
2020/12/08 04:41:38;;;;;;;23.90;20.90;;;4.50;99.90;;;;;;5096753;28;20189;-79
2020/12/08 04:44:05;;;;;;;24.17;21.57;;;4.50;99.90;;;;;;5113604;28;20182;-79
2020/12/08 04:46:31;;;;;;;25.50;20.73;;;4.60;99.90;;;;;;5096662;28;20183;-78
2020/12/08 04:48:57;;;;;;;23.90;21.10;;;4.80;99.90;;;;;;5112712;28;20232;-79
2020/12/08 04:51:23;;;;;;;21.80;19.37;;;4.70;99.90;;;;;;5110911;28;20182;-79
2020/12/08 04:53:52;;;;;;;24.33;19.77;;;4.60;99.90;;;;;;5075758;28;20625;-79
2020/12/08 04:56:18;;;;;;;24.63;20.23;;;4.60;99.90;;;;;;5085114;28;20193;-79
2020/12/08 04:58:44;;;;;;;24.33;20.63;;;4.70;99.90;;;;;;5086670;28;20309;-78
2020/12/08 05:01:23;;;;;;;24.17;20.90;;;4.70;99.90;;;;;;5107095;28;20203;-79
2020/12/08 05:04:01;;;;;;;22.40;19.77;;;4.70;99.90;;;;;;5099834;28;20238;-79
2020/12/08 05:06:28;;;;;;;24.50;20.57;;;4.70;99.90;;;;;;5111867;28;20867;-79
2020/12/08 05:09:06;;;;;;;24.23;20.63;;;4.80;99.90;;;;;;5078613;28;20554;-79
2020/12/08 05:11:32;;;;;;;22.17;19.87;;;4.90;99.90;;;;;;5106789;28;20181;-78
2020/12/08 05:14:07;;;;;;;21.67;19.37;;;4.50;99.90;;;;;;5094733;28;20216;-79
2020/12/08 05:16:33;;;;;;;21.67;19.30;;;4.40;99.90;;;;;;5085535;28;20267;-79
2020/12/08 05:19:09;;;;;;;21.60;19.30;;;4.40;99.90;;;;;;5106768;28;20713;-79
2020/12/08 05:21:48;;;;;;;22.03;19.50;;;4.40;99.90;;;;;;5104861;28;20184;-79
2020/12/08 05:24:31;;;;;;;21.73;19.43;;;4.20;99.90;;;;;;5100387;28;20180;-79
2020/12/08 05:27:05;;;;;;;22.33;20.03;;;4.20;99.90;;;;;;5108180;28;20187;-78
2020/12/08 05:29:32;;;;;;;23.57;19.53;;;4.20;99.90;;;;;;5112693;28;20719;-78
2020/12/08 05:32:16;;;;;;;23.00;19.37;;;4.30;99.90;;;;;;5113795;28;20197;-79
2020/12/08 05:34:46;;;;;;;22.97;20.20;;;4.30;99.90;;;;;;5112195;28;20211;-79
2020/12/08 05:37:18;;;;;;;22.07;19.77;;;4.30;99.90;;;;;;5112508;28;20219;-79
2020/12/08 05:39:45;;;;;;;22.77;19.53;;;4.50;99.90;;;;;;5112582;28;20171;-79
2020/12/08 05:42:19;;;;;;;22.97;19.70;;;4.60;99.90;;;;;;5113861;28;20253;-79
2020/12/08 05:44:50;;;;;;;21.43;19.17;;;4.70;99.90;;;;;;5113294;28;20183;-79
2020/12/08 05:47:21;;;;;;;20.83;18.63;;;4.70;99.90;;;;;;5113618;28;20178;-79
2020/12/08 05:50:00;;;;;;;21.60;19.07;;;4.90;99.90;;;;;;5112480;28;20187;-79
2020/12/08 05:52:33;;;;;;;20.97;18.67;;;4.90;99.90;;;;;;5113746;28;20167;-80
2020/12/08 05:55:10;;;;;;;23.03;20.33;;;5.00;99.90;;;;;;5112074;28;20214;-79
2020/12/08 05:57:36;;;;;;;22.03;19.23;;;4.90;99.90;;;;;;5112146;28;20207;-79
2020/12/08 06:00:04;;;;;;;22.47;18.97;;;4.80;99.90;;;;;;5113617;28;20276;-79
2020/12/08 06:02:30;;;;;;;21.57;19.23;;;4.70;99.90;;;;;;5112150;28;20182;-79
2020/12/08 06:04:57;;;;;;;22.13;18.90;;;4.70;99.90;;;;;;5112273;28;20177;-79
2020/12/08 06:07:30;;;;;;;20.90;18.80;;;4.70;99.90;;;;;;5107376;28;20577;-79
2020/12/08 06:10:03;;;;;;;20.93;18.73;;;4.70;99.90;;;;;;5093385;28;20163;-79
2020/12/08 06:12:29;;;;;;;21.43;19.23;;;4.60;99.90;;;;;;5108404;28;20209;-80
2020/12/08 06:14:55;;;;;;;22.07;19.70;;;4.60;99.90;;;;;;5098635;28;20245;-79
2020/12/08 06:17:20;;;;;;;22.80;20.27;;;4.50;99.90;;;;;;5078345;28;20217;-79
2020/12/08 06:19:46;;;;;;;21.57;18.90;;;4.60;99.90;;;;;;5095177;28;20529;-80
2020/12/08 06:22:14;;;;;;;23.63;20.53;;;4.50;99.90;;;;;;5111866;28;20183;-79
2020/12/08 06:24:53;;;;;;;23.20;20.80;;;4.40;99.90;;;;;;5113481;28;20230;-79
2020/12/08 06:27:23;;;;;;;28.07;22.17;;;4.40;99.90;;;;;;5111976;28;20196;-79
2020/12/08 06:29:54;;;;;;;24.00;21.43;;;4.40;99.90;;;;;;5095280;28;20518;-79
2020/12/08 06:32:25;;;;;;;23.40;20.90;;;4.40;99.90;;;;;;5113147;28;20169;-81
2020/12/08 06:35:11;;;;;;;24.57;20.03;;;4.30;99.90;;;;;;5115576;28;20227;-81
2020/12/08 06:37:53;;;;;;;21.47;19.33;;;4.30;99.90;;;;;;5116004;28;20183;-80
2020/12/08 06:40:23;;;;;;;23.57;20.20;;;4.30;99.90;;;;;;5115851;28;20175;-79
2020/12/08 06:42:50;;;;;;;24.27;21.67;;;4.20;99.90;;;;;;5115383;28;20187;-78
2020/12/08 06:45:19;;;;;;;23.67;20.63;;;4.10;99.90;;;;;;5098800;28;20184;-79
2020/12/08 06:47:46;;;;;;;24.50;21.07;;;4.20;99.90;;;;;;5115061;28;20177;-78
2020/12/08 06:50:28;;;;;;;24.07;21.33;;;4.10;99.90;;;;;;5085592;28;20653;-78
2020/12/08 06:53:01;;;;;;;23.00;20.50;;;4.10;99.90;;;;;;5098574;28;20211;-78
2020/12/08 06:55:29;;;;;;;25.00;21.17;;;4.00;99.90;;;;;;5115443;28;20176;-79
2020/12/08 06:58:04;;;;;;;25.07;21.73;;;3.90;99.90;;;;;;5115079;28;20187;-79
2020/12/08 07:00:30;;;;;;;23.43;21.00;;;3.80;99.90;;;;;;5115308;28;20206;-79
2020/12/08 07:02:57;;;;;;;24.03;21.13;;;4.40;99.90;;;;;;5098585;28;20203;-79
2020/12/08 07:05:28;;;;;;;23.03;20.63;;;4.40;99.90;;;;;;5098748;28;20183;-79
2020/12/08 07:07:58;;;;;;;26.00;23.20;;;4.30;99.90;;;;;;5115021;28;20543;-78
2020/12/08 07:10:24;;;;;;;23.07;20.53;;;3.90;99.90;;;;;;5116332;28;20658;-79
2020/12/08 07:12:52;;;;;;;24.13;21.63;;;3.60;99.90;;;;;;5114966;28;20175;-79
2020/12/08 07:15:36;;;;;;;23.77;21.23;;;3.50;99.90;;;;;;5116133;28;20228;-79
2020/12/08 07:18:04;;;;;;;24.87;21.50;;;3.40;99.90;;;;;;5097918;28;20182;-78
2020/12/08 07:20:31;;;;;;;23.90;21.40;;;3.40;99.90;;;;;;5115300;28;20263;-79
2020/12/08 07:23:04;;;;;;;25.00;21.37;;;3.40;99.90;;;;;;5114797;28;20700;-79
2020/12/08 07:25:31;;;;;;;25.33;22.43;;;3.30;99.90;;;;;;5115830;28;20158;-78
2020/12/08 07:27:57;;;;;;;26.80;21.90;;;3.20;99.90;;;;;;5114572;28;20240;-78
2020/12/08 07:30:24;;;;;;;27.20;24.10;;;3.20;99.90;;;;;;5097555;28;20179;-79
2020/12/08 07:32:52;;;;;;;26.00;23.10;;;3.10;99.90;;;;;;5116160;28;20180;-79
2020/12/08 07:35:29;;;;;;;30.10;24.83;;;3.10;99.90;;;;;;5114247;28;20583;-79
2020/12/08 07:37:56;;;;;;;29.17;25.07;;;3.20;99.90;;;;;;5115027;28;20215;-79
2020/12/08 07:40:30;;;;;;;28.47;25.43;;;3.20;99.90;;;;;;5096864;28;20177;-79
2020/12/08 07:42:56;;;;;;;28.03;24.60;;;3.20;99.90;;;;;;5113909;28;20261;-79
2020/12/08 07:45:22;;;;;;;33.23;26.37;;;3.00;99.90;;;;;;5097283;28;20267;-79
2020/12/08 07:47:53;;;;;;;29.37;25.33;;;2.60;99.90;;;;;;5114782;28;20556;-79
2020/12/08 07:50:21;;;;;;;31.97;26.53;;;2.50;99.90;;;;;;5115531;28;20235;-79
2020/12/08 07:52:58;;;;;;;28.70;25.27;;;2.70;99.90;;;;;;5097397;28;20680;-79
2020/12/08 07:55:24;;;;;;;30.33;26.40;;;2.80;99.90;;;;;;5097424;28;20593;-79
2020/12/08 07:57:49;;;;;;;29.03;25.50;;;3.10;99.90;;;;;;5097499;28;20171;-78
2020/12/08 08:00:15;;;;;;;31.00;26.53;;;3.30;99.90;;;;;;5097250;28;20559;-79
2020/12/08 08:02:41;;;;;;;30.70;26.70;;;3.50;99.90;;;;;;5115397;28;20544;-79
2020/12/08 08:05:06;;;;;;;31.70;26.73;;;3.50;99.90;;;;;;5116247;28;20531;-79
2020/12/08 08:07:32;;;;;;;31.20;26.23;;;3.30;99.90;;;;;;5097436;28;20828;-79
2020/12/08 08:09:58;;;;;;;29.80;26.13;;;3.40;99.90;;;;;;5079355;28;20175;-79
2020/12/08 08:12:24;;;;;;;28.97;24.87;;;3.40;99.90;;;;;;5113322;28;20211;-78
2020/12/08 08:14:50;;;;;;;28.73;25.43;;;3.40;99.90;;;;;;5096679;28;20205;-79
2020/12/08 08:17:16;;;;;;;30.33;24.50;;;3.50;99.90;;;;;;5076819;28;20175;-79
2020/12/08 08:19:41;;;;;;;33.50;25.57;;;3.60;99.90;;;;;;5092480;28;20194;-79
2020/12/08 08:22:07;;;;;;;28.33;23.27;;;3.80;99.90;;;;;;5090184;28;20186;-80
2020/12/08 08:24:33;;;;;;;34.30;27.80;;;4.00;99.90;;;;;;5076366;28;20181;-79
2020/12/08 08:26:58;;;;;;;31.33;26.27;;;4.00;99.90;;;;;;5114832;28;20172;-80
2020/12/08 08:29:24;;;;;;;33.20;26.30;;;4.10;99.90;;;;;;5096267;28;20185;-79
2020/12/08 08:31:50;;;;;;;30.90;24.70;;;4.50;99.90;;;;;;5112127;28;20215;-79
2020/12/08 08:34:15;;;;;;;29.87;23.13;;;5.10;99.90;;;;;;5113783;28;20724;-80
2020/12/08 08:36:51;;;;;;;31.07;23.00;;;5.70;99.90;;;;;;5113679;28;20222;-79
2020/12/08 08:39:17;;;;;;;28.00;22.30;;;6.40;99.90;;;;;;5113488;28;20215;-79
2020/12/08 08:41:43;;;;;;;25.53;20.67;;;6.70;99.90;;;;;;5114347;28;20196;-80
2020/12/08 08:44:09;;;;;;;24.40;20.13;;;7.10;99.90;;;;;;5096002;28;20584;-79
2020/12/08 08:46:37;;;;;;;25.13;19.97;;;7.30;99.90;;;;;;5113762;28;20177;-79
2020/12/08 08:49:03;;;;;;;29.63;20.97;;;7.30;99.90;;;;;;5112616;28;20226;-79
2020/12/08 08:51:29;;;;;;;24.60;19.63;;;7.20;99.90;;;;;;5103190;28;20185;-80
2020/12/08 08:53:54;;;;;;;24.83;20.40;;;7.00;99.90;;;;;;5106822;28;20208;-79
2020/12/08 08:56:20;;;;;;;24.87;20.10;;;6.90;99.90;;;;;;5113542;28;20169;-79
2020/12/08 08:58:45;;;;;;;28.40;21.03;;;6.80;99.90;;;;;;5075801;28;20170;-79
2020/12/08 09:01:11;;;;;;;25.03;19.77;;;6.70;99.90;;;;;;5101790;28;20173;-79
2020/12/08 09:03:38;;;;;;;24.87;20.17;;;6.50;99.90;;;;;;5112927;28;20187;-79
2020/12/08 09:06:04;;;;;;;22.43;19.00;;;6.30;99.90;;;;;;5079389;28;20184;-79
2020/12/08 09:08:30;;;;;;;23.43;19.67;;;6.30;99.90;;;;;;5114542;28;20189;-79
2020/12/08 09:10:57;;;;;;;25.60;19.73;;;6.30;99.90;;;;;;5113034;28;20277;-79
2020/12/08 09:13:22;;;;;;;24.30;21.17;;;6.00;99.90;;;;;;5112802;28;20208;-79
2020/12/08 09:15:48;;;;;;;27.37;22.00;;;5.70;99.90;;;;;;5096187;28;20512;-79
2020/12/08 09:18:14;;;;;;;26.63;22.13;;;5.70;99.90;;;;;;5113046;28;20170;-79
2020/12/08 09:20:40;;;;;;;30.53;23.30;;;5.50;99.90;;;;;;5113916;28;20177;-79
2020/12/08 09:23:06;;;;;;;29.07;23.13;;;5.70;99.90;;;;;;5112956;28;20279;-79
2020/12/08 09:25:32;;;;;;;29.30;23.47;;;5.60;99.90;;;;;;5112801;28;20177;-79
2020/12/08 09:27:57;;;;;;;27.27;23.40;;;5.70;99.90;;;;;;5095834;28;20196;-79
2020/12/08 09:30:24;;;;;;;32.20;22.37;;;5.90;99.90;;;;;;5112561;28;20200;-79
2020/12/08 09:32:50;;;;;;;34.37;22.97;;;5.90;99.90;;;;;;5105330;28;20186;-79
2020/12/08 09:35:17;;;;;;;29.93;22.63;;;6.10;99.90;;;;;;5100330;28;20268;-79
2020/12/08 09:37:43;;;;;;;32.00;22.67;;;6.20;99.90;;;;;;5075691;28;20204;-80
2020/12/08 09:40:10;;;;;;;26.00;22.27;;;6.50;99.90;;;;;;5103620;28;20540;-79
2020/12/08 09:42:44;;;;;;;29.17;22.97;;;6.60;99.90;;;;;;5111916;28;20185;-79
2020/12/08 09:45:10;;;;;;;25.67;21.60;;;6.80;99.90;;;;;;5113826;28;20174;-79
2020/12/08 09:47:36;;;;;;;26.90;22.30;;;6.80;99.90;;;;;;5111989;28;20593;-79
2020/12/08 09:50:07;;;;;;;41.50;25.17;;;6.70;99.90;;;;;;5111737;28;20595;-79
2020/12/08 09:52:33;;;;;;;35.23;24.43;;;6.70;99.90;;;;;;5108953;28;20189;-79
2020/12/08 09:54:59;;;;;;;32.13;22.37;;;6.60;99.90;;;;;;5084931;28;20216;-79
2020/12/08 09:57:25;;;;;;;37.97;23.13;;;6.50;99.90;;;;;;5099959;28;20225;-80
2020/12/08 09:59:52;;;;;;;38.60;24.00;;;6.20;99.90;;;;;;5114002;28;20222;-79
2020/12/08 10:02:19;;;;;;;43.47;26.83;;;6.00;99.90;;;;;;5100061;28;20220;-79
2020/12/08 10:04:45;;;;;;;39.83;25.83;;;5.90;99.90;;;;;;5071965;28;20203;-79
2020/12/08 10:07:15;;;;;;;32.77;22.20;;;6.00;99.90;;;;;;5086343;28;20519;-79
2020/12/08 10:09:43;;;;;;;26.20;21.30;;;5.90;99.90;;;;;;5083587;28;20191;-79
2020/12/08 10:12:09;;;;;;;24.53;21.60;;;6.10;99.90;;;;;;5109345;28;20205;-79
2020/12/08 10:14:36;;;;;;;32.87;21.70;;;6.20;99.90;;;;;;5088609;28;20235;-79
2020/12/08 10:17:02;;;;;;;25.93;21.07;;;6.20;99.90;;;;;;5077772;28;20182;-79
2020/12/08 10:19:28;;;;;;;29.43;22.50;;;6.10;99.90;;;;;;5084463;28;20286;-79
2020/12/08 10:21:58;;;;;;;30.20;22.47;;;6.20;99.90;;;;;;5073630;28;20655;-79
2020/12/08 10:24:24;;;;;;;32.13;22.00;;;6.40;99.90;;;;;;5082655;28;20850;-79
2020/12/08 10:26:50;;;;;;;33.40;21.83;;;6.30;99.90;;;;;;5080701;28;20569;-79
2020/12/08 10:29:16;;;;;;;44.10;33.50;;;6.20;99.90;;;;;;5060379;28;20186;-79
2020/12/08 10:31:42;;;;;;;70.63;48.13;;;6.20;99.90;;;;;;5081233;28;20276;-79
2020/12/08 10:34:08;;;;;;;46.40;33.73;;;6.40;99.90;;;;;;5069996;28;20202;-78
2020/12/08 10:36:35;;;;;;;35.87;27.20;;;6.70;99.90;;;;;;5091270;28;20173;-79
2020/12/08 10:39:01;;;;;;;27.77;23.20;;;6.70;99.90;;;;;;5094407;28;20189;-78
2020/12/08 10:41:28;;;;;;;28.70;23.43;;;6.80;99.90;;;;;;5090715;28;20174;-79
2020/12/08 10:43:54;;;;;;;32.97;23.70;;;7.10;99.90;;;;;;5098446;28;20211;-79
2020/12/08 10:46:19;;;;;;;29.90;22.87;;;7.20;99.90;;;;;;5115467;28;20193;-79
2020/12/08 10:48:45;;;;;;;26.87;22.47;;;7.20;99.90;;;;;;5109609;28;20732;-79
2020/12/08 10:51:11;;;;;;;29.87;22.60;;;7.40;99.90;;;;;;5099734;28;20189;-79
2020/12/08 10:53:36;;;;;;;27.90;22.17;;;7.30;99.90;;;;;;5117112;28;20197;-79
2020/12/08 10:56:02;;;;;;;27.90;21.83;;;7.60;99.90;;;;;;5078252;28;20182;-79
2020/12/08 10:58:28;;;;;;;32.93;22.77;;;7.60;99.90;;;;;;5099122;28;20177;-79
2020/12/08 11:00:54;;;;;;;26.80;21.40;;;7.50;99.90;;;;;;5098425;28;20208;-79
2020/12/08 11:03:19;;;;;;;26.53;21.07;;;7.40;99.90;;;;;;5100866;28;20538;-79
2020/12/08 11:05:45;;;;;;;26.17;20.90;;;7.50;99.90;;;;;;5116729;28;20215;-79
2020/12/08 11:08:11;;;;;;;25.90;20.43;;;7.60;99.90;;;;;;5115308;28;20216;-79
2020/12/08 11:10:37;;;;;;;26.37;20.83;;;7.60;99.90;;;;;;5115327;28;20532;-79
2020/12/08 11:13:03;;;;;;;22.17;19.73;;;7.80;99.90;;;;;;5115098;28;20238;-79
2020/12/08 11:15:29;;;;;;;26.53;18.73;;;7.70;99.90;;;;;;5098200;28;20177;-79
2020/12/08 11:17:55;;;;;;;22.17;17.80;;;7.80;99.90;;;;;;5077643;28;20304;-79
2020/12/08 11:20:21;;;;;;;24.90;19.93;;;7.80;99.90;;;;;;5113712;28;20213;-79
2020/12/08 11:22:47;;;;;;;25.00;18.10;;;7.70;99.90;;;;;;5115372;28;20177;-79
2020/12/08 11:25:13;;;;;;;20.47;17.60;;;7.90;99.90;;;;;;5081343;28;20187;-79
2020/12/08 11:27:39;;;;;;;20.77;17.83;;;8.10;99.90;;;;;;5115044;28;20568;-79
2020/12/08 11:30:05;;;;;;;23.37;17.73;;;8.40;99.90;;;;;;5116350;28;20201;-79
2020/12/08 11:32:31;;;;;;;21.37;17.77;;;7.80;99.90;;;;;;5088596;28;20689;-78
2020/12/08 11:34:57;;;;;;;21.90;18.17;;;8.10;99.90;;;;;;5081230;28;20212;-78
2020/12/08 11:37:23;;;;;;;23.17;18.00;;;8.20;99.90;;;;;;5100347;28;20718;-78
2020/12/08 11:39:49;;;;;;;25.80;21.03;;;7.80;99.90;;;;;;5104951;28;20177;-78
2020/12/08 11:42:15;;;;;;;21.97;17.93;;;7.40;99.90;;;;;;5104353;28;20677;-78
2020/12/08 11:44:43;;;;;;;21.27;17.50;;;7.60;99.90;;;;;;5110386;28;20177;-77
2020/12/08 11:47:09;;;;;;;22.33;20.02;;;7.50;99.90;;;;;;5096267;28;20423;-78
2020/12/08 11:49:36;;;;;;;20.30;16.37;;;7.40;99.90;;;;;;5077066;28;20189;-78
2020/12/08 11:52:05;;;;;;;19.70;17.60;;;7.30;99.90;;;;;;5085356;28;20189;-79
2020/12/08 11:54:34;;;;;;;20.10;16.83;;;7.30;99.90;;;;;;5107357;28;20267;-79
2020/12/08 11:57:03;;;;;;;18.97;16.93;;;7.40;99.90;;;;;;5110605;28;20654;-79
2020/12/08 11:59:29;;;;;;;20.47;17.43;;;7.40;99.90;;;;;;5110168;28;20201;-79
2020/12/08 12:01:55;;;;;;;21.00;17.50;;;7.50;99.90;;;;;;5097711;28;20749;-79
2020/12/08 12:04:20;;;;;;;18.20;16.30;;;7.40;99.90;;;;;;5076154;28;20304;-79
2020/12/08 12:06:46;;;;;;;18.83;16.93;;;7.30;99.90;;;;;;5093707;28;20253;-79
2020/12/08 12:09:12;;;;;;;19.27;17.27;;;7.30;99.90;;;;;;5088866;28;20195;-79
2020/12/08 12:11:38;;;;;;;21.60;16.63;;;7.40;99.90;;;;;;5109812;28;20186;-79
2020/12/08 12:14:04;;;;;;;29.97;24.57;;;7.60;99.90;;;;;;5092926;28;20628;-79
2020/12/08 12:16:29;;;;;;;19.37;17.37;;;7.60;99.90;;;;;;5090036;28;20201;-79
2020/12/08 12:18:56;;;;;;;23.90;21.33;;;7.30;99.90;;;;;;5099146;28;20547;-79
2020/12/08 12:21:22;;;;;;;19.03;15.87;;;7.30;99.90;;;;;;5113641;28;20181;-80
2020/12/08 12:23:48;;;;;;;21.10;17.10;;;7.30;99.90;;;;;;5113728;28;20231;-79
2020/12/08 12:26:13;;;;;;;17.87;15.97;;;7.00;99.90;;;;;;5111538;28;20189;-79
2020/12/08 12:28:39;;;;;;;17.77;15.83;;;6.90;99.90;;;;;;5112065;28;20194;-79
2020/12/08 12:31:07;;;;;;;17.70;15.20;;;7.30;99.90;;;;;;5092035;28;20189;-79
2020/12/08 12:33:34;;;;;;;24.00;20.00;;;7.20;99.90;;;;;;5107478;28;20296;-79
2020/12/08 12:36:00;;;;;;;17.47;15.17;;;7.20;99.90;;;;;;5113756;28;20174;-80